New Castle, New Hampshire
Current Conditions -  °F | °C
As of 10:13 AM on Friday 24 Oct 2014 (Local Time) from KPSM Reporting Station
Overcast Overcast  
Wind Chill: 50°   Ceiling: 1300
Heat Index: 50°   Visibility: 10mi
Dew Point: 48°   Wind: 13mph
Humidity: 94%   Direction: 330°NNW
Pressure: 29.7"   Gusts: NA
Location:  43.07°N, 70.72°W
Report Text: KPSM 241413Z 33011KT 10SM FEW007 BKN013 OVC030 10/09 A2970 RMK AO2A
Loading
Personal Weather Stations






























Interactive Weather Map
Tropical Storm Tracking
New forecast layout! Learn more

10-Day Weather Forecast

Advertisements
Track Severe Weather on mobile